Data for 02/09/2015

Time Sea-Level Adjusted Pressure Absolute Pressure Temperature Relative Humidity Dew Point   
(mb) (inHg) (mb) (inHg) (C) (F) (%) (C) (F)
00:05 1019 30.09 848 25.04 5.8 42.5 45 -5.3 22.4
00:10 1019 30.09 848 25.04 5.7 42.3 45 -5.2 22.7
00:15 1019 30.09 848 25.04 5.7 42.2 46 -4.9 23.1
00:20 1019 30.09 848 25.04 5.6 42.1 47 -5 23.1
00:25 1019 30.09 848 25.04 5.7 42.2 46 -5.1 22.9
00:30 1019 30.09 848 25.04 5.7 42.3 46 -5 23.1
00:35 1019 30.09 848 25.04 5.7 42.2 47 -4.7 23.6
00:40 1019 30.09 848 25.04 5.6 42.1 47 -4.7 23.5
00:45 1018 30.06 848 25.04 5.6 42.1 48 -4.6 23.7
00:50 1018 30.06 848 25.04 5.5 42 48 -4.6 23.8
00:55 1018 30.06 848 25.04 5.4 41.7 48 -4.6 23.7
01:00 1018 30.06 848 25.04 5.3 41.6 49 -4.6 23.8
01:05 1018 30.06 848 25.04 5.4 41.7 49 -4.5 24
01:10 1018 30.06 848 25.04 5.4 41.7 49 -4.5 24
01:15 1018 30.06 847 25.01 5.3 41.6 49 -4.5 23.9
01:20 1018 30.06 847 25.01 5.3 41.5 49 -4.4 24
01:25 1018 30.06 847 25.01 5.4 41.7 49 -4.5 23.9
01:30 1018 30.06 847 25.01 5.6 42 49 -4.3 24.2
01:35 1018 30.06 847 25.01 5.7 42.2 48 -4.4 24
01:40 1018 30.06 847 25.01 5.7 42.3 48 -4.4 24.1
01:45 1018 30.06 847 25.01 5.7 42.2 48 -4.5 23.8
01:50 1018 30.06 847 25.01 5.7 42.3 48 -4.5 23.8
01:55 1018 30.06 847 25.01 5.8 42.4 48 -4.3 24.2
02:00 1018 30.06 847 25.01 5.8 42.4 48 -4.4 24.1
02:05 1018 30.06 847 25.01 5.9 42.6 48 -4.3 24.3
02:10 1018 30.06 847 25.01 5.9 42.6 49 -4.1 24.7
02:15 1018 30.06 847 25.01 5.8 42.5 49 -4.1 24.5
02:20 1017 30.03 847 25.01 6 42.7 48 -4.3 24.2
02:25 1017 30.03 847 25.01 6 42.7 49 -4 24.8
02:30 1017 30.03 846 24.98 5.9 42.6 49 -4.1 24.7
02:35 1017 30.03 846 24.98 6 42.7 49 -4 24.8
02:40 1017 30.03 846 24.98 6 42.8 48 -4.1 24.7
02:45 1017 30.03 846 24.98 6.2 43.1 48 -4 24.7
02:50 1017 30.03 846 24.98 6.2 43.2 48 -3.8 25.1
02:55 1017 30.03 846 24.98 6.1 43.1 49 -3.8 25.1
03:00 1017 30.03 846 24.98 6.1 43 49 -3.8 25.2
03:05 1017 30.03 846 24.98 6.2 43.2 49 -3.8 25.1
03:10 1017 30.03 846 24.98 6.5 43.6 48 -3.9 25
03:15 1017 30.03 846 24.98 6.5 43.8 47 -3.8 25.1
03:20 1017 30.03 846 24.98 6.5 43.8 47 -3.9 25
03:25 1017 30.03 846 24.98 6.5 43.7 47 -3.9 24.9
03:30 1017 30.03 846 24.98 6.5 43.7 47 -4 24.9
03:35 1017 30.03 846 24.98 6.4 43.5 48 -4 24.9
03:40 1016 30 846 24.98 6.2 43.1 49 -3.9 25
03:45 1016 30 845 24.95 6 42.8 50 -3.7 25.3
03:50 1016 30 845 24.95 5.9 42.6 50 -3.8 25.2
03:55 1016 30 845 24.95 6.2 43.1 49 -3.7 25.3
04:00 1016 30 845 24.95 6.4 43.4 49 -3.7 25.4
04:05 1016 30 845 24.95 6.5 43.7 48 -3.6 25.6
04:10 1016 30 845 24.95 6.5 43.7 49 -3.6 25.6
04:15 1016 30 845 24.95 6.5 43.6 48 -3.7 25.4
04:20 1016 30 845 24.95 6.2 43.1 50 -3.6 25.5
04:25 1015 29.97 845 24.95 6 42.8 50 -3.7 25.3
04:30 1015 29.97 845 24.95 6.1 43 49 -3.8 25.1
04:35 1015 29.97 845 24.95 6.4 43.6 48 -3.7 25.4
04:40 1015 29.97 845 24.95 6.4 43.6 48 -3.7 25.4
04:45 1015 29.97 845 24.95 6.5 43.8 48 -3.5 25.6
04:50 1015 29.97 845 24.95 6.6 43.8 48 -3.7 25.4
04:55 1015 29.97 845 24.95 6.7 44.1 48 -3.6 25.6
05:00 1015 29.97 844 24.92 6.7 44.1 48 -3.5 25.6
05:05 1015 29.97 844 24.92 6.8 44.2 47 -3.7 25.3
05:10 1015 29.97 844 24.92 6.9 44.3 48 -3.4 25.9
05:15 1015 29.97 844 24.92 6.5 43.7 49 -3.4 25.9
05:20 1015 29.97 844 24.92 6.5 43.7 49 -3.5 25.6
05:25 1015 29.97 844 24.92 6.7 44 48 -3.5 25.7
05:30 1015 29.97 844 24.92 6.7 44.1 48 -3.5 25.7
05:35 1015 29.97 844 24.92 6.7 44.1 48 -3.4 25.9
05:40 1014 29.94 844 24.92 6.7 44.1 48 -3.5 25.8
05:45 1014 29.94 844 24.92 6.9 44.4 47 -3.5 25.6
05:50 1014 29.94 843 24.89 6.9 44.4 48 -3.3 26
05:55 1014 29.94 843 24.89 6.8 44.2 49 -3.3 26.1
06:00 1014 29.94 843 24.89 6.8 44.2 48 -3.4 25.9
06:05 1014 29.94 843 24.89 6.8 44.2 48 -3.3 26
06:10 1014 29.94 843 24.89 6.8 44.3 48 -3.3 26
06:15 1014 29.94 843 24.89 6.8 44.3 48 -3.3 26
06:20 1014 29.94 843 24.89 6.9 44.4 47 -3.6 25.5
06:25 1014 29.94 843 24.89 7.1 44.8 47 -3.5 25.7
06:30 1014 29.94 843 24.89 7.3 45.2 46 -3.4 25.9
06:35 1014 29.94 843 24.89 7.3 45.2 47 -3.2 26.2
06:40 1014 29.94 843 24.89 7.3 45.1 47 -3.3 26.1
06:45 1014 29.94 843 24.89 7.3 45.2 47 -3.2 26.2
06:50 1014 29.94 843 24.89 7.4 45.3 47 -3.2 26.3
06:55 1014 29.94 843 24.89 7.4 45.3 47 -3.2 26.3
07:00 1014 29.94 843 24.89 7.4 45.2 47 -3.1 26.4
07:05 1014 29.94 843 24.89 7.5 45.4 47 -3.1 26.4
07:10 1014 29.94 843 24.89 7.3 45.1 48 -3 26.7
07:15 1014 29.94 843 24.89 7.2 45 49 -2.9 26.8
07:20 1014 29.94 843 24.89 7.3 45.2 50 -2.3 27.9
07:25 1013 29.91 843 24.89 7.2 45 52 -2.1 28.3
07:30 1013 29.91 842 24.86 7.1 44.7 53 -1.8 28.7
07:35 1013 29.91 843 24.89 6.6 43.9 55 -1.9 28.6
07:40 1013 29.91 842 24.86 6.3 43.4 55 -1.9 28.5
07:45 1013 29.91 842 24.86 6.3 43.4 55 -1.9 28.6
07:50 1013 29.91 843 24.89 6.2 43.1 59 -1.3 29.7
07:55 1013 29.91 842 24.86 5.9 42.6 61 -1.1 30.1
08:00 1013 29.91 842 24.86 6.1 43 63 -0.4 31.3
08:05 1013 29.91 842 24.86 6.1 42.9 66 0.1 32.2
08:10 1013 29.91 842 24.86 5.9 42.7 67 0.4 32.7
08:15 1013 29.91 842 24.86 5.9 42.7 66 0.2 32.3
08:20 1013 29.91 842 24.86 6.1 43 66 0.2 32.4
08:25 1013 29.91 842 24.86 6.1 43 66 0.3 32.5
08:30 1013 29.91 842 24.86 6 42.8 67 0.3 32.5
08:35 1012 29.88 842 24.86 6 42.8 66 0.2 32.3
08:40 1012 29.88 841 24.83 6.1 43 65 0.1 32.1
08:45 1012 29.88 841 24.83 6.2 43.1 65 0.1 32.2
08:50 1012 29.88 841 24.83 6.4 43.4 65 0.3 32.6
08:55 1012 29.88 841 24.83 6.4 43.6 66 0.5 32.9
09:00 1012 29.88 841 24.83 6.5 43.7 65 0.5 32.8
09:05 1012 29.88 841 24.83 6.8 44.2 64 0.5 32.9
09:10 1012 29.88 841 24.83 7.1 44.7 63 0.5 32.8
09:15 1012 29.88 841 24.83 7.3 45.1 62 0.5 32.9
09:20 1012 29.88 841 24.83 7.6 45.6 61 0.6 33
09:25 1012 29.88 841 24.83 7.5 45.5 61 0.6 33
09:30 1012 29.88 841 24.83 7.5 45.6 61 0.6 33.1
09:35 1012 29.88 841 24.83 7.4 45.4 62 0.6 33.1
09:40 1012 29.88 841 24.83 7.4 45.3 62 0.5 33
09:45 1011 29.85 841 24.83 7.4 45.4 61 0.4 32.8
09:50 1011 29.85 841 24.83 7.7 45.9 58 -0 32
09:55 1011 29.85 841 24.83 8.1 46.6 58 0.4 32.8
10:00 1011 29.85 841 24.83 8.1 46.6 58 0.3 32.5
10:05 1011 29.85 841 24.83 8.4 47.1 57 0.3 32.6
10:10 1012 29.88 841 24.83 8.6 47.5 55 0.2 32.3
10:15 1011 29.85 841 24.83 8.8 47.9 54 0.1 32.2
10:20 1011 29.85 841 24.83 8.9 48 54 0.2 32.4
10:25 1011 29.85 841 24.83 8.9 48 55 0.3 32.5
10:30 1012 29.88 841 24.83 8.9 48.1 55 0.3 32.6
10:35 1011 29.85 841 24.83 9 48.2 55 0.4 32.7
10:40 1012 29.88 841 24.83 9.2 48.5 53 0.2 32.3
10:45 1012 29.88 841 24.83 9.5 49.1 54 0.6 33.1
10:50 1012 29.88 842 24.86 9.6 49.3 58 1.8 35.3
10:55 1013 29.91 842 24.86 9.4 49 63 2.8 37
11:00 1013 29.91 842 24.86 7.9 46.2 67 2.3 36.1
11:05 1014 29.94 843 24.89 6.2 43.2 72 1.6 34.9
11:10 1014 29.94 843 24.89 5.8 42.4 74 1.4 34.6
11:15 1013 29.91 843 24.89 6.3 43.3 69 1.1 33.9
11:20 1013 29.91 842 24.86 7.1 44.7 67 1.3 34.3
11:25 1013 29.91 842 24.86 7.3 45.1 66 1.4 34.5
11:30 1013 29.91 842 24.86 7.3 45.2 66 1.3 34.4
11:35 1013 29.91 842 24.86 7.5 45.5 67 1.7 35.1
11:40 1013 29.91 842 24.86 7.1 44.8 68 1.6 34.8
11:45 1013 29.91 842 24.86 6.3 43.4 71 1.5 34.7
11:50 1012 29.88 842 24.86 6.4 43.4 71 1.4 34.5
11:55 1012 29.88 842 24.86 6.7 44 69 1.5 34.7
12:00 1012 29.88 841 24.83 6.5 43.7 73 2 35.6
12:05 1012 29.88 842 24.86 6 42.8 74 1.8 35.3
12:10 1012 29.88 842 24.86 6.1 43.1 75 2 35.7
12:15 1012 29.88 842 24.86 6.4 43.5 75 2.2 36
12:20 1012 29.88 842 24.86 7 44.6 70 2 35.6
12:25 1013 29.91 842 24.86 7.4 45.2 69 2 35.7
12:30 1012 29.88 842 24.86 7.5 45.4 70 2.4 36.3
12:35 1012 29.88 842 24.86 7.7 45.8 69 2.4 36.2
12:40 1013 29.91 842 24.86 7.7 45.9 69 2.4 36.4
12:45 1013 29.91 842 24.86 7.8 46 68 2.3 36.1
12:50 1013 29.91 842 24.86 7.7 45.9 68 2.1 35.8
12:55 1013 29.91 842 24.86 7.7 45.9 69 2.3 36.2
13:00 1013 29.91 842 24.86 7.9 46.3 67 2.3 36.1
13:05 1013 29.91 842 24.86 8.2 46.8 65 2 35.6
13:10 1013 29.91 842 24.86 8.4 47.2 65 2.2 35.9
13:15 1013 29.91 842 24.86 8.6 47.4 64 2.2 35.9
13:20 1013 29.91 842 24.86 8.5 47.3 65 2.4 36.2
13:25 1012 29.88 842 24.86 8.4 47.2 64 2 35.6
13:30 1012 29.88 842 24.86 8.8 47.8 63 2.2 35.9
13:35 1012 29.88 842 24.86 9.3 48.8 61 2.3 36.1
13:40 1012 29.88 842 24.86 9.9 49.8 58 2 35.6
13:45 1012 29.88 841 24.83 10.4 50.8 56 2.1 35.8
13:50 1012 29.88 841 24.83 10.7 51.3 51 1.2 34.1
13:55 1012 29.88 841 24.83 10.9 51.7 53 1.7 35
14:00 1012 29.88 841 24.83 10.8 51.4 54 1.8 35.3
14:05 1012 29.88 841 24.83 10.8 51.4 53 1.7 35.1
14:10 1012 29.88 841 24.83 11 51.9 39 -2.3 27.9
14:15 1012 29.88 841 24.83 11.5 52.7 38 -2.2 28
14:20 1012 29.88 841 24.83 12.3 54.1 36 -2.5 27.5
14:25 1012 29.88 841 24.83 12.3 54.1 36 -2.3 27.8
14:30 1012 29.88 841 24.83 12.1 53.8 36 -2.3 27.9
14:35 1012 29.88 841 24.83 12 53.5 36 -2.6 27.4
14:40 1012 29.88 841 24.83 11.4 52.6 36 -2.9 26.8
14:45 1012 29.88 841 24.83 11.3 52.3 36 -3.1 26.5
14:50 1012 29.88 841 24.83 11.6 52.9 34 -3.8 25.2
14:55 1012 29.88 841 24.83 12 53.6 33 -3.7 25.3
15:00 1012 29.88 841 24.83 12.2 53.9 33 -3.4 25.9
15:05 1012 29.88 841 24.83 12.1 53.7 34 -3.4 25.9
15:10 1012 29.88 841 24.83 11.9 53.5 33 -4 24.8
15:15 1012 29.88 841 24.83 11.6 52.9 33 -3.9 25
15:20 1012 29.88 841 24.83 11.5 52.8 33 -4.2 24.4
15:25 1012 29.88 841 24.83 11.5 52.6 34 -3.8 25.2
15:30 1012 29.88 841 24.83 11.4 52.6 35 -3.4 25.9
15:35 1012 29.88 841 24.83 11.5 52.7 35 -3.6 25.6
15:40 1012 29.88 841 24.83 11.6 52.8 36 -3 26.6
15:45 1012 29.88 841 24.83 11.6 52.8 36 -2.9 26.8
15:50 1012 29.88 841 24.83 11.5 52.7 35 -3.3 26
15:55 1012 29.88 841 24.83 11.4 52.6 35 -3.3 26
16:00 1012 29.88 841 24.83 11.4 52.5 35 -3.3 26
16:05 1012 29.88 841 24.83 11.4 52.5 36 -3.3 26.1
16:10 1012 29.88 841 24.83 11.3 52.4 36 -3.1 26.4
16:15 1012 29.88 841 24.83 11.5 52.7 34 -3.6 25.5
16:20 1012 29.88 841 24.83 11.8 53.3 34 -3.3 26.1
16:25 1012 29.88 841 24.83 11.9 53.4 34 -3.6 25.5
16:30 1012 29.88 841 24.83 11.9 53.4 33 -3.8 25.2
16:35 1012 29.88 841 24.83 11.7 53 34 -3.7 25.4
16:40 1012 29.88 841 24.83 11.5 52.7 35 -3.5 25.8
16:45 1012 29.88 841 24.83 11.4 52.5 33 -4.1 24.6
16:50 1012 29.88 841 24.83 11.3 52.4 33 -4.3 24.3
16:55 1012 29.88 841 24.83 11.2 52.2 33 -4.4 24.1
17:00 1012 29.88 841 24.83 11.2 52.1 33 -4.3 24.3
17:05 1012 29.88 841 24.83 11.1 51.9 34 -4.1 24.6
17:10 1012 29.88 841 24.83 11 51.7 35 -3.8 25.1
17:15 1012 29.88 841 24.83 10.9 51.6 35 -3.8 25.2
17:20 1012 29.88 841 24.83 10.9 51.7 35 -3.7 25.3
17:25 1012 29.88 841 24.83 10.9 51.6 36 -3.6 25.6
17:30 1012 29.88 841 24.83 10.9 51.6 36 -3.7 25.3
17:35 1012 29.88 841 24.83 10.9 51.7 35 -4 24.9
17:40 1012 29.88 841 24.83 11 51.9 34 -4.2 24.4
17:45 1012 29.88 841 24.83 11 51.8 35 -3.8 25.1
17:50 1012 29.88 841 24.83 10.9 51.6 35 -3.9 24.9
17:55 1012 29.88 841 24.83 10.7 51.3 36 -3.6 25.5
18:00 1012 29.88 841 24.83 10.6 51 36 -3.8 25.2
18:05 1012 29.88 841 24.83 10.5 50.9 36 -3.8 25.2
18:10 1012 29.88 841 24.83 10.5 50.9 37 -3.4 25.9
18:15 1012 29.88 842 24.86 10.3 50.5 38 -3.2 26.2
18:20 1012 29.88 842 24.86 10.4 50.6 39 -2.8 27
18:25 1013 29.91 842 24.86 10.2 50.3 40 -2.6 27.2
18:30 1013 29.91 842 24.86 10.1 50.1 40 -2.7 27.1
18:35 1013 29.91 842 24.86 10 50 40 -2.8 27
18:40 1013 29.91 842 24.86 9.9 49.8 42 -2.5 27.4
18:45 1013 29.91 842 24.86 9.7 49.4 41 -2.8 26.9
18:50 1013 29.91 842 24.86 9.6 49.2 41 -3 26.6
18:55 1013 29.91 842 24.86 9.5 49.1 41 -3 26.6
19:00 1013 29.91 842 24.86 9.4 48.9 41 -3 26.6
19:05 1013 29.91 842 24.86 9.4 49 41 -3.2 26.3
19:10 1013 29.91 842 24.86 9.5 49 41 -3 26.6
19:15 1013 29.91 842 24.86 9.4 48.9 41 -3 26.6
19:20 1013 29.91 842 24.86 9.3 48.7 42 -2.9 26.8
19:25 1013 29.91 842 24.86 9.1 48.4 43 -2.8 26.9
19:30 1013 29.91 842 24.86 9 48.2 43 -2.9 26.7
19:35 1013 29.91 842 24.86 9 48.2 43 -2.8 27
19:40 1013 29.91 842 24.86 8.9 48 44 -2.5 27.4
19:45 1013 29.91 842 24.86 8.7 47.7 45 -2.6 27.3
19:50 1013 29.91 842 24.86 8.7 47.6 45 -2.5 27.5
19:55 1013 29.91 842 24.86 8.7 47.7 45 -2.6 27.3
20:00 1013 29.91 842 24.86 8.8 47.8 45 -2.4 27.6
20:05 1013 29.91 843 24.89 8.7 47.7 46 -2.3 27.8
20:10 1013 29.91 843 24.89 8.6 47.4 46 -2.3 27.9
20:15 1013 29.91 843 24.89 8.5 47.2 46 -2.4 27.7
20:20 1013 29.91 843 24.89 8.4 47.2 47 -2.3 27.8
20:25 1013 29.91 843 24.89 8.3 47 48 -2.1 28.3
20:30 1013 29.91 842 24.86 8.2 46.8 52 -1.1 30
20:35 1013 29.91 842 24.86 7.7 45.9 52 -1.5 29.3
20:40 1013 29.91 842 24.86 7.7 45.9 53 -1.3 29.7
20:45 1013 29.91 842 24.86 7.5 45.6 54 -1.1 30
20:50 1013 29.91 842 24.86 7.4 45.3 54 -1.4 29.5
20:55 1013 29.91 842 24.86 7.4 45.3 53 -1.5 29.2
21:00 1013 29.91 843 24.89 7.4 45.4 52 -1.8 28.7
21:05 1013 29.91 843 24.89 7.5 45.6 51 -1.8 28.7
21:10 1014 29.94 843 24.89 7.4 45.4 51 -1.9 28.5
21:15 1014 29.94 843 24.89 7.3 45.2 51 -2.1 28.2
21:20 1014 29.94 843 24.89 7.3 45.2 51 -2.2 28
21:25 1014 29.94 843 24.89 7.4 45.2 50 -2.4 27.7
21:30 1014 29.94 843 24.89 7.3 45.2 50 -2.4 27.7
21:35 1014 29.94 843 24.89 7.4 45.2 49 -2.6 27.3
21:40 1014 29.94 843 24.89 7.5 45.4 48 -2.7 27.1
21:45 1014 29.94 843 24.89 7.7 45.8 47 -2.8 26.9
21:50 1014 29.94 843 24.89 7.8 46 47 -2.7 27.2
21:55 1014 29.94 843 24.89 7.6 45.7 48 -2.8 27
22:00 1014 29.94 843 24.89 7.5 45.5 48 -2.9 26.7
22:05 1014 29.94 843 24.89 7.5 45.6 47 -3.1 26.5
22:10 1014 29.94 843 24.89 7.5 45.5 47 -3.1 26.5
22:15 1014 29.94 843 24.89 7.4 45.3 48 -3 26.6
22:20 1014 29.94 843 24.89 7.3 45.1 48 -3.1 26.5
22:25 1014 29.94 843 24.89 7.3 45.1 47 -3.3 26.1
22:30 1014 29.94 844 24.92 7.4 45.3 47 -3.2 26.2
22:35 1014 29.94 844 24.92 7.4 45.3 46 -3.4 26
22:40 1014 29.94 844 24.92 7.5 45.4 45 -3.7 25.4
22:45 1015 29.97 844 24.92 7.6 45.6 45 -3.7 25.4
22:50 1014 29.94 844 24.92 7.5 45.6 44 -4 24.8
22:55 1015 29.97 844 24.92 7.6 45.6 43 -4.2 24.4
23:00 1015 29.97 844 24.92 7.6 45.6 42 -4.4 24.2
23:05 1014 29.94 844 24.92 7.5 45.6 42 -4.4 24.1
23:10 1015 29.97 844 24.92 7.6 45.6 42 -4.4 24
23:15 1015 29.97 844 24.92 7.5 45.5 42 -4.4 24
23:20 1015 29.97 844 24.92 7.5 45.5 42 -4.4 24
23:25 1015 29.97 844 24.92 7.5 45.6 42 -4.5 24
23:30 1015 29.97 844 24.92 7.6 45.6 42 -4.5 24
23:35 1015 29.97 844 24.92 7.5 45.5 42 -4.4 24.1
23:40 1015 29.97 844 24.92 7.4 45.3 43 -4.4 24.1
23:45 1015 29.97 844 24.92 7.3 45.2 43 -4.5 23.8
23:50 1015 29.97 844 24.92 7.4 45.3 42 -4.7 23.5
23:55 1015 29.97 844 24.92 7.4 45.3 42 -4.8 23.4
24:00 1015 29.97 844 24.92 7.4 45.3 42 -4.6 23.7